Aeroporto :







RITROVATECI SU...

 
LOGIN :

Iscrizione | Disclaimer

   EN    FR    IT 

 









Sommario :    VFR   VFR Marginale   IFR   IFR Intensivo   IFR Molto Intensivo
Visibilità : 
Base nubi : 
>= 8 km
>= 3000ft
5 / 8 km
1000 / 3000 ft
1500m / 5 km
500 / 1000 ft
800 / 1500m
200 / 500 ft
< 800m
< 200 ft
Simboli :   Temporali  Nebbia  Neve Forte  Precipitazioni Forti  Vento > 20 kt






- Altitudine del aeroporto : 9 ft
- Codice IATA : SJU


TJSJ - Luis Munoz Marin Int.

ULTIMO METAR :
  • 191956Z 07012KT 10SM FEW037 SCT090 27/21 A3004 RMK AO2 SLP170 T02670206

METARs OBSOLETI :
  • 191856Z 07018G22KT 10SM FEW036 SCT050 BKN085 28/22 A3004 RMK AO2 SLP173 VCSH NE SE S T02780217
  • 191756Z 06012G19KT 10SM FEW042 FEW050 SCT100 27/21 A3006 RMK AO2 SLP177 60001 T02720211 10289 20256 58021

TAF TJSJ
Valido dal 19 a 18 ore il 20 a 18 ore UTC


191740Z 1918/2018 05015G22KT P6SM VCSH SCT024 SCT040 SCT080
FM192200 09011KT P6SM VCSH FEW024 SCT040
FM201300 08014G24KT P6SM VCSH FEW024 SCT040



MetMap, La meteo Aeronautica in un colpo d'occhio ! - Copyright ORBIFLY Dicembre 2007 - Disclaimer

ORBIFLY MET'MAP TEAM :

Programmazione e sviluppo : Alexandra Zaïnal
Concezione : Baudouin d'Aumeries
Aiuto per la programmazione : Marc-Olivier Méhu
Supporto tecnico e logistico : Manuel Goepfert
Aiuto per la traduzione : Arnaldo La Scala

Contatto : metmap@orbifly.com




FONTI E CREDITI :

   NOAA